Time;durP1;ratioP1;P1;durP2;ratioP2;P2;SDS_P1;SDS_P2;PMS_P1;PMS_P2;Temp;Humidity;BMP_temperature;BMP_pressure;BME280_temperature;BME280_humidity;BME280_pressure;Samples;Min_cycle;Max_cycle;Signal;HPM_P1;HPM_P2
2023/10/19 00:00:57;;;;;;;22.60;20.30;;;;;;;3.78;100.00;94617.16;7403224;19;20415;-89
2023/10/19 00:03:24;;;;;;;22.87;19.07;;;;;;;3.35;100.00;94545.22;7402094;19;20401;-89
2023/10/19 00:05:51;;;;;;;28.30;19.63;;;;;;;3.65;100.00;94599.91;7401815;19;20913;-89
2023/10/19 00:08:21;;;;;;;25.30;20.60;;;;;;;3.66;100.00;94583.91;7400786;19;20416;-89
2023/10/19 00:11:31;;;;;;;21.53;17.67;;;;;;;2.93;100.00;94490.50;7401929;19;20373;-89
2023/10/19 00:13:51;;;;;;;22.47;20.13;;;;;;;3.86;100.00;94606.56;7404537;19;20471;-88
2023/10/19 00:16:22;;;;;;;25.40;20.60;;;;;;;2.87;100.00;94468.31;7401472;19;20497;-89
2023/10/19 00:18:49;;;;;;;26.20;21.73;;;;;;;3.63;100.00;94560.28;7401239;19;20413;-89
2023/10/19 00:21:27;;;;;;;22.40;19.60;;;;;;;3.22;100.00;94492.22;7403599;19;20381;-89
2023/10/19 00:24:04;;;;;;;26.53;20.40;;;;;;;3.89;100.00;94575.66;7401285;19;20416;-89
2023/10/19 00:26:32;;;;;;;21.87;19.63;;;;;;;3.37;100.00;94535.22;7402886;19;20337;-89
2023/10/19 00:29:05;;;;;;;26.40;22.53;;;;;;;3.77;100.00;94600.69;7400225;19;20419;-88
2023/10/19 00:31:36;;;;;;;27.43;24.47;;;;;;;3.72;100.00;94587.84;7400922;19;20356;-89
2023/10/19 00:34:04;;;;;;;27.07;21.80;;;;;;;3.42;100.00;94524.56;7401581;19;21011;-88
2023/10/19 00:36:31;;;;;;;27.30;21.37;;;;;;;3.54;100.00;94542.84;7400787;19;20388;-88
2023/10/19 00:39:01;;;;;;;24.77;20.27;;;;;;;3.94;100.00;94598.97;7402548;19;20416;-88
2023/10/19 00:41:31;;;;;;;28.77;23.30;;;;;;;3.37;100.00;94514.34;7400685;19;20372;-89
2023/10/19 00:44:11;;;;;;;26.77;22.57;;;;;;;3.60;100.00;94540.78;7399495;19;20365;-89
2023/10/19 00:46:43;;;;;;;29.40;23.20;;;;;;;4.00;100.00;94574.88;7399979;19;20463;-89
2023/10/19 00:49:15;;;;;;;26.27;21.50;;;;;;;3.27;100.00;94465.13;7398589;19;20421;-89
2023/10/19 00:54:32;;;;;;;25.73;21.70;;;;;;;3.38;100.00;94476.69;7400043;19;20384;-89
2023/10/19 00:57:13;;;;;;;29.00;20.93;;;;;;;2.53;100.00;94340.84;7401123;19;20408;-89
2023/10/19 01:02:17;;;;;;;28.97;24.20;;;;;;;2.73;100.00;94367.97;7402507;19;20396;-89
2023/10/19 01:04:50;;;;;;;27.33;23.70;;;;;;;3.43;100.00;94480.91;7404039;19;20389;-89
2023/10/19 01:07:27;;;;;;;29.03;20.90;;;;;;;3.56;100.00;94488.44;7401409;19;20371;-88
2023/10/19 01:09:56;;;;;;;23.30;20.90;;;;;;;3.01;100.00;94396.78;7399499;19;20968;-88
2023/10/19 01:15:17;;;;;;;25.53;22.83;;;;;;;3.38;100.00;94461.00;7400863;19;20758;-88
2023/10/19 01:17:51;;;;;;;28.50;24.00;;;;;;;3.28;100.00;94450.97;7400551;19;20394;-89
2023/10/19 01:34:09;;;;;;;26.40;22.03;;;;;;;3.53;100.00;94443.91;7398872;19;20432;-88
2023/10/19 01:36:42;;;;;;;29.63;23.83;;;;;;;3.69;100.00;94470.13;7399449;19;20760;-88
2023/10/19 01:39:10;;;;;;;28.27;22.50;;;;;;;3.71;100.00;94478.41;7397615;19;20425;-88
2023/10/19 01:41:41;;;;;;;27.10;22.80;;;;;;;3.80;100.00;94502.59;7398130;19;20813;-88
2023/10/19 01:44:12;;;;;;;28.40;23.00;;;;;;;3.67;100.00;94483.53;7398393;19;20396;-88
2023/10/19 01:46:43;;;;;;;28.77;23.37;;;;;;;3.63;100.00;94469.59;7398327;19;20381;-88
2023/10/19 01:49:11;;;;;;;28.73;23.70;;;;;;;3.81;100.00;94506.72;7396989;19;20442;-88
2023/10/19 01:51:38;;;;;;;26.07;21.30;;;;;;;3.63;100.00;94476.69;7397515;19;20400;-88
2023/10/19 01:54:07;;;;;;;25.97;23.13;;;;;;;3.35;100.00;94430.31;7397921;19;20384;-89
2023/10/19 01:56:35;;;;;;;28.87;24.40;;;;;;;2.87;100.00;94363.19;7397726;19;20404;-89
2023/10/19 01:59:04;;;;;;;32.77;23.60;;;;;;;3.71;100.00;94483.63;7396423;19;20451;-88
2023/10/19 02:01:32;;;;;;;31.10;25.60;;;;;;;3.94;100.00;94508.25;7396570;19;20956;-88
2023/10/19 02:04:05;;;;;;;27.00;23.67;;;;;;;3.96;100.00;94516.50;7397332;19;20365;-88
2023/10/19 02:09:23;;;;;;;36.97;28.40;;;;;;;4.01;100.00;94499.84;7397136;19;20416;-88
2023/10/19 02:11:58;;;;;;;31.80;28.10;;;;;;;4.00;100.00;94509.53;7397418;19;20369;-88
2023/10/19 02:14:28;;;;;;;31.20;25.37;;;;;;;3.51;100.00;94414.75;7398232;19;20363;-88
2023/10/19 02:16:59;;;;;;;28.73;25.40;;;;;;;3.49;100.00;94430.75;7404408;19;20417;-88
2023/10/19 02:19:29;;;;;;;28.93;22.03;;;;;;;3.88;100.00;94486.03;7422990;19;20452;-88
2023/10/19 02:22:03;;;;;;;29.70;24.47;;;;;;;3.75;100.00;94469.59;7424770;19;20368;-88
2023/10/19 02:24:30;;;;;;;29.70;25.17;;;;;;;3.59;100.00;94458.28;7420356;19;20492;-88
2023/10/19 02:27:01;;;;;;;28.43;25.17;;;;;;;3.36;100.00;94429.25;7402896;19;20364;-88
2023/10/19 02:29:28;;;;;;;31.60;25.70;;;;;;;3.28;100.00;94411.81;7400992;19;20784;-88
2023/10/19 02:31:56;;;;;;;32.03;25.67;;;;;;;3.18;100.00;94388.75;7402224;19;20922;-88
2023/10/19 02:34:24;;;;;;;27.73;24.43;;;;;;;3.18;100.00;94386.91;7403070;19;20396;-87
2023/10/19 02:36:51;;;;;;;33.07;25.53;;;;;;;3.65;100.00;94445.75;7403404;19;20381;-88
2023/10/19 02:39:18;;;;;;;31.53;23.60;;;;;;;3.09;100.00;94369.84;7399364;19;20412;-88
2023/10/19 02:41:50;;;;;;;28.13;25.17;;;;;;;3.75;100.00;94450.56;7409097;19;20381;-89
2023/10/19 02:46:51;;;;;;;27.33;23.60;;;;;;;3.76;100.00;94449.47;7408775;19;20388;-88
2023/10/19 02:49:20;;;;;;;27.30;23.40;;;;;;;3.54;100.00;94409.63;7406666;19;20424;-87
2023/10/19 02:51:49;;;;;;;24.90;22.20;;;;;;;3.40;100.00;94390.94;7406996;19;20401;-88
2023/10/19 02:54:22;;;;;;;32.03;23.60;;;;;;;3.93;100.00;94451.06;7406868;19;20372;-89
2023/10/19 02:56:53;;;;;;;25.47;22.07;;;;;;;3.90;100.00;94449.13;7406735;19;20388;-89
2023/10/19 02:59:22;;;;;;;27.97;22.33;;;;;;;3.98;100.00;94461.28;7404374;19;20392;-88
2023/10/19 03:01:51;;;;;;;26.13;21.40;;;;;;;3.48;100.00;94387.44;7406895;19;20383;-88
2023/10/19 03:04:19;;;;;;;27.13;21.77;;;;;;;3.70;100.00;94429.84;7407264;19;20357;-88
2023/10/19 03:06:47;;;;;;;29.97;23.67;;;;;;;3.56;100.00;94410.06;7406305;19;20384;-89
2023/10/19 03:09:20;;;;;;;23.93;21.27;;;;;;;3.04;100.00;94317.84;7404597;19;20413;-87
2023/10/19 03:11:47;;;;;;;28.73;23.00;;;;;;;3.52;100.00;94393.53;7406743;19;20379;-88
2023/10/19 03:14:13;;;;;;;24.90;22.00;;;;;;;2.87;100.00;94298.72;7404041;19;20396;-89
2023/10/19 03:16:43;;;;;;;27.27;22.17;;;;;;;2.70;100.00;94274.69;7403534;19;20742;-88
2023/10/19 03:19:11;;;;;;;26.90;22.50;;;;;;;3.57;100.00;94413.44;7402935;19;20412;-88
2023/10/19 03:21:49;;;;;;;31.10;23.10;;;;;;;3.68;100.00;94426.81;7406734;19;20726;-88
2023/10/19 03:24:23;;;;;;;27.40;23.17;;;;;;;2.66;100.00;94285.75;7407048;19;20426;-88
2023/10/19 03:26:50;;;;;;;31.00;22.73;;;;;;;3.42;100.00;94386.13;7405938;19;20411;-88
2023/10/19 03:29:31;;;;;;;28.07;23.20;;;;;;;3.42;100.00;94382.75;7403590;19;20408;-89
2023/10/19 03:32:01;;;;;;;36.57;23.90;;;;;;;2.66;100.00;94261.53;7404262;19;20400;-89
2023/10/19 03:34:31;;;;;;;29.43;24.97;;;;;;;3.46;100.00;94367.94;7403904;19;20715;-89
2023/10/19 03:37:05;;;;;;;28.00;23.00;;;;;;;3.10;100.00;94319.91;7404504;19;20391;-89
2023/10/19 03:39:34;;;;;;;29.93;26.20;;;;;;;3.68;100.00;94391.00;7402003;19;20409;-89
2023/10/19 03:42:01;;;;;;;29.63;25.20;;;;;;;2.42;100.00;94199.72;7403440;19;20389;-88
2023/10/19 03:44:39;;;;;;;28.73;25.73;;;;;;;3.69;100.00;94381.31;7401470;19;20376;-89
2023/10/19 03:47:11;;;;;;;31.07;26.07;;;;;;;3.44;100.00;94344.78;7402182;19;20852;-89
2023/10/19 03:49:39;;;;;;;26.47;23.20;;;;;;;3.65;100.00;94364.78;7401155;19;20421;-88
2023/10/19 03:54:41;;;;;;;28.53;21.50;;;;;;;3.59;100.00;94368.69;7401726;19;20399;-89
2023/10/19 03:57:12;;;;;;;25.70;23.00;;;;;;;3.21;100.00;94305.31;7401741;19;20738;-89
2023/10/19 03:59:40;;;;;;;30.17;23.20;;;;;;;3.72;100.00;94373.56;7400283;19;20487;-89
2023/10/19 04:02:14;;;;;;;26.47;22.83;;;;;;;3.91;100.00;94401.72;7404217;19;20395;-89
2023/10/19 04:04:46;;;;;;;27.70;23.07;;;;;;;2.44;100.00;94174.09;7403880;19;20897;-89
2023/10/19 04:07:26;;;;;;;29.70;22.60;;;;;;;3.90;100.00;94386.38;7405444;19;20416;-88
2023/10/19 04:10:09;;;;;;;31.43;24.63;;;;;;;3.62;100.00;94358.38;7402739;19;20428;-89
2023/10/19 04:12:42;;;;;;;27.50;23.47;;;;;;;3.41;100.00;94329.00;7404644;19;20408;-89
2023/10/19 04:15:16;;;;;;;26.37;21.53;;;;;;;3.64;100.00;94371.09;7401987;19;20413;-89
2023/10/19 04:17:45;;;;;;;26.33;21.17;;;;;;;3.85;100.00;94390.72;7402227;19;20369;-89
2023/10/19 04:22:49;;;;;;;25.37;22.40;;;;;;;3.91;100.00;94391.28;7399879;19;20360;-89
2023/10/19 04:25:36;;;;;;;41.23;30.67;;;;;;;3.99;100.00;94397.44;7399119;19;20385;-89
2023/10/19 04:28:06;;;;;;;46.63;36.80;;;;;;;3.77;100.00;94372.59;7398450;19;20949;-89
2023/10/19 04:30:35;;;;;;;39.00;30.90;;;;;;;3.29;100.00;94295.06;7397754;19;20380;-89
2023/10/19 04:33:08;;;;;;;31.70;26.60;;;;;;;3.70;100.00;94354.84;7398007;19;20389;-89
2023/10/19 04:35:37;;;;;;;28.27;24.73;;;;;;;3.97;100.00;94386.56;7398902;19;20393;-88
2023/10/19 04:38:07;;;;;;;28.83;24.10;;;;;;;3.98;100.00;94383.63;7398915;19;20431;-89
2023/10/19 04:40:35;;;;;;;31.10;24.17;;;;;;;3.82;100.00;94356.66;7399378;19;20388;-88
2023/10/19 04:43:05;;;;;;;26.33;22.40;;;;;;;3.86;100.00;94370.59;7399827;19;20374;-89
2023/10/19 04:45:32;;;;;;;28.53;25.50;;;;;;;3.50;100.00;94303.53;7398641;19;20414;-89
2023/10/19 04:47:59;;;;;;;27.07;23.50;;;;;;;3.56;100.00;94312.63;7398555;19;20385;-89
2023/10/19 04:50:26;;;;;;;24.37;21.77;;;;;;;3.32;100.00;94270.91;7399043;19;20385;-89
2023/10/19 04:52:53;;;;;;;26.60;23.70;;;;;;;3.11;100.00;94247.59;7398980;19;20478;-88
2023/10/19 04:55:20;;;;;;;28.23;23.50;;;;;;;2.21;100.00;94119.03;7398792;19;20377;-89
2023/10/19 04:57:48;;;;;;;25.77;23.00;;;;;;;3.63;100.00;94319.94;7399058;19;20427;-89
2023/10/19 05:00:24;;;;;;;27.03;23.57;;;;;;;3.03;100.00;94230.19;7400468;19;20395;-89
2023/10/19 05:02:51;;;;;;;27.30;24.47;;;;;;;3.37;100.00;94283.75;7399105;19;20395;-88
2023/10/19 05:05:19;;;;;;;28.23;23.47;;;;;;;3.82;100.00;94348.81;7401869;19;20401;-89
2023/10/19 05:07:46;;;;;;;25.83;21.27;;;;;;;3.26;100.00;94254.72;7404739;19;20373;-89
2023/10/19 05:10:13;;;;;;;23.37;19.30;;;;;;;3.73;100.00;94327.28;7403054;19;20385;-89
2023/10/19 05:12:40;;;;;;;27.90;22.60;;;;;;;3.74;100.00;94331.41;7405509;19;20355;-88
2023/10/19 05:15:08;;;;;;;31.03;24.27;;;;;;;3.67;100.00;94318.16;7395438;19;20356;-88
2023/10/19 05:17:35;;;;;;;29.30;23.53;;;;;;;2.99;100.00;94214.44;7397468;19;20479;-88
2023/10/19 05:20:05;;;;;;;24.77;21.93;;;;;;;3.27;100.00;94248.41;7395078;19;20412;-87
2023/10/19 05:22:32;;;;;;;26.83;23.43;;;;;;;3.77;100.00;94325.53;7396291;19;20361;-86
2023/10/19 05:25:01;;;;;;;23.33;20.93;;;;;;;3.71;100.00;94305.94;7396868;19;20356;-85
2023/10/19 05:27:28;;;;;;;26.40;22.43;;;;;;;3.81;100.00;94321.94;7394762;19;20460;-87
2023/10/19 05:29:55;;;;;;;27.80;21.60;;;;;;;4.02;100.00;94352.38;7394255;19;20386;-87
2023/10/19 05:32:22;;;;;;;24.17;21.27;;;;;;;3.97;100.00;94363.81;7394379;19;20373;-87
2023/10/19 05:34:49;;;;;;;30.07;21.70;;;;;;;3.70;100.00;94320.13;7394096;19;20898;-89
2023/10/19 05:37:17;;;;;;;25.20;22.30;;;;;;;3.68;100.00;94311.84;7393829;19;20365;-89
2023/10/19 05:39:44;;;;;;;25.70;23.07;;;;;;;3.64;100.00;94327.44;7392434;19;20765;-89
2023/10/19 05:42:11;;;;;;;26.10;23.20;;;;;;;3.74;100.00;94331.41;7394240;19;20403;-89
2023/10/19 05:44:38;;;;;;;25.60;22.63;;;;;;;3.98;100.00;94361.94;7396933;19;20368;-89
2023/10/19 05:47:06;;;;;;;30.30;22.80;;;;;;;3.40;100.00;94270.03;7396452;19;20412;-89
2023/10/19 05:49:34;;;;;;;26.50;22.60;;;;;;;3.76;100.00;94311.72;7394573;19;20836;-89
2023/10/19 05:52:03;;;;;;;22.67;20.10;;;;;;;4.10;100.00;94365.28;7390976;19;20389;-89
2023/10/19 05:54:30;;;;;;;25.00;22.33;;;;;;;3.96;100.00;94357.06;7395426;19;20929;-89
2023/10/19 05:56:58;;;;;;;26.83;22.17;;;;;;;3.51;100.00;94294.59;7411350;19;20364;-89
2023/10/19 05:59:26;;;;;;;25.93;23.23;;;;;;;3.43;100.00;94285.03;7396388;19;20385;-91
2023/10/19 06:01:53;;;;;;;29.77;24.60;;;;;;;3.18;100.00;94269.41;7392140;19;20417;-90
2023/10/19 06:04:21;;;;;;;27.00;23.40;;;;;;;3.07;100.00;94244.88;7393274;19;20407;-90
2023/10/19 06:06:48;;;;;;;26.77;22.40;;;;;;;3.40;100.00;94294.28;7395383;19;20391;-90
2023/10/19 06:09:17;;;;;;;31.27;24.87;;;;;;;2.79;100.00;94210.88;7393686;19;20405;-90
2023/10/19 06:11:45;;;;;;;37.03;26.23;;;;;;;3.03;100.00;94238.78;7393604;19;20873;-89
2023/10/19 06:14:13;;;;;;;30.23;24.50;;;;;;;3.57;100.00;94306.31;7392988;19;20399;-90
2023/10/19 06:16:43;;;;;;;24.57;21.50;;;;;;;1.53;100.00;93988.59;7393605;19;20361;-90
2023/10/19 06:19:10;;;;;;;25.37;20.10;;;;;;;3.05;100.00;94222.78;7393769;19;20409;-90
2023/10/19 06:21:37;;;;;;;31.20;22.97;;;;;;;2.95;100.00;94198.69;7394710;19;20920;-90
2023/10/19 06:24:04;;;;;;;27.57;22.20;;;;;;;3.39;100.00;94268.50;7393962;19;20836;-90
2023/10/19 06:26:31;;;;;;;27.80;21.37;;;;;;;3.09;100.00;94228.88;7395119;19;20381;-90
2023/10/19 06:28:59;;;;;;;28.13;22.90;;;;;;;2.24;100.00;94115.00;7393663;19;20412;-90
2023/10/19 06:31:28;;;;;;;27.27;24.27;;;;;;;3.60;100.00;94297.81;7393409;19;20373;-89
2023/10/19 06:33:57;;;;;;;29.80;23.67;;;;;;;1.99;100.00;94075.16;7393843;19;20727;-89
2023/10/19 06:36:25;;;;;;;23.67;21.17;;;;;;;2.33;100.00;94116.41;7394314;19;20385;-89
2023/10/19 06:38:54;;;;;;;28.77;24.80;;;;;;;3.15;100.00;94238.00;7394028;19;20767;-90
2023/10/19 06:41:22;;;;;;;28.43;22.93;;;;;;;2.84;100.00;94184.56;7394379;19;20722;-89
2023/10/19 06:43:49;;;;;;;24.60;21.60;;;;;;;3.52;100.00;94262.16;7393715;19;20369;-89
2023/10/19 06:46:17;;;;;;;26.77;21.70;;;;;;;3.40;100.00;94238.69;7394232;19;20773;-90
2023/10/19 06:48:44;;;;;;;29.07;23.67;;;;;;;3.25;100.00;94233.09;7393184;19;20405;-89
2023/10/19 06:51:12;;;;;;;27.07;23.50;;;;;;;3.51;100.00;94268.47;7393259;19;20467;-90
2023/10/19 06:53:39;;;;;;;31.10;25.33;;;;;;;4.00;100.00;94334.38;7393846;19;20381;-90
2023/10/19 06:56:06;;;;;;;28.47;24.27;;;;;;;3.53;100.00;94248.75;7394290;19;20380;-89
2023/10/19 06:58:34;;;;;;;30.57;23.53;;;;;;;3.49;100.00;94229.63;7392991;19;20424;-90
2023/10/19 07:01:07;;;;;;;35.00;25.30;;;;;;;3.00;100.00;94152.56;7393844;19;20381;-89
2023/10/19 07:03:35;;;;;;;33.20;25.70;;;;;;;3.64;100.00;94261.38;7393542;19;20380;-90
2023/10/19 07:06:02;;;;;;;26.10;21.87;;;;;;;2.90;100.00;94136.28;7394152;19;20383;-89
2023/10/19 07:08:36;;;;;;;27.07;24.13;;;;;;;2.91;100.00;94137.78;7392473;19;20415;-89
2023/10/19 07:11:03;;;;;;;26.27;23.23;;;;;;;2.72;100.00;94116.78;7392387;19;20927;-90
2023/10/19 07:13:32;;;;;;;25.60;22.13;;;;;;;3.30;100.00;94172.03;7392917;19;20395;-89
2023/10/19 07:16:00;;;;;;;32.40;23.93;;;;;;;3.69;100.00;94221.91;7407760;19;20372;-90
2023/10/19 07:18:28;;;;;;;32.80;23.73;;;;;;;2.85;100.00;94104.44;7422154;19;20435;-94
2023/10/19 07:21:02;;;;;;;25.90;23.20;;;;;;;3.40;100.00;94195.06;7424576;19;20401;-90
2023/10/19 07:23:30;;;;;;;31.37;24.73;;;;;;;2.35;100.00;94025.59;7404985;19;20424;-90
2023/10/19 07:26:00;;;;;;;28.87;23.30;;;;;;;3.98;100.00;94249.53;7396187;19;20402;-90
2023/10/19 07:28:27;;;;;;;29.00;23.63;;;;;;;3.37;100.00;94147.97;7399824;19;20427;-90
2023/10/19 07:30:55;;;;;;;29.73;23.77;;;;;;;3.46;100.00;94161.63;7400825;19;20407;-90
2023/10/19 07:33:24;;;;;;;27.33;22.77;;;;;;;3.66;100.00;94175.56;7400747;19;20396;-90
2023/10/19 07:35:59;;;;;;;25.10;22.40;;;;;;;4.38;100.00;94265.09;7399898;19;20489;-89
2023/10/19 07:38:28;;;;;;;25.90;22.57;;;;;;;3.44;100.00;94133.22;7399332;19;20944;-88
2023/10/19 07:40:56;;;;;;;26.83;23.50;;;;;;;3.05;100.00;94060.97;7399979;19;20376;-88
2023/10/19 07:43:25;;;;;;;26.60;22.73;;;;;;;3.89;100.00;94176.53;7400364;19;20852;-88
2023/10/19 07:45:52;;;;;;;29.27;25.07;;;;;;;4.79;100.00;94297.09;7399839;19;20412;-89
2023/10/19 07:48:20;;;;;;;30.07;25.10;;;;;;;4.04;100.00;94185.47;7399035;19;20776;-88
2023/10/19 07:50:47;;;;;;;29.00;24.83;;;;;;;3.66;100.00;94111.00;7398793;19;20905;-88
2023/10/19 07:53:14;;;;;;;29.23;24.80;;;;;;;3.66;100.00;94089.34;7398328;19;20386;-89
2023/10/19 07:55:42;;;;;;;32.07;27.57;;;;;;;4.53;100.00;94219.88;7399118;19;20381;-88
2023/10/19 07:58:10;;;;;;;29.60;23.53;;;;;;;3.04;100.00;94000.19;7398168;19;20421;-89
2023/10/19 08:00:38;;;;;;;27.10;24.10;;;;;;;4.42;100.00;94231.97;7397962;19;20973;-89
2023/10/19 08:03:06;;;;;;;30.40;24.20;;;;;;;4.35;100.00;94210.84;7398219;19;20755;-89
2023/10/19 08:05:35;;;;;;;28.20;24.07;;;;;;;3.93;100.00;94153.09;7398578;19;20388;-88
2023/10/19 08:08:04;;;;;;;29.53;23.33;;;;;;;4.86;100.00;94268.47;7398386;19;20428;-89
2023/10/19 08:10:31;;;;;;;27.60;22.97;;;;;;;4.52;100.00;94228.81;7397556;19;20395;-88
2023/10/19 08:12:59;;;;;;;25.93;23.10;;;;;;;3.12;100.00;94030.59;7395360;19;20412;-88
2023/10/19 08:15:28;;;;;;;25.60;22.90;;;;;;;3.61;100.00;94113.13;7398257;19;20882;-89
2023/10/19 08:17:56;;;;;;;26.83;21.97;;;;;;;4.27;100.00;94196.09;7396917;19;20388;-88
2023/10/19 08:20:23;;;;;;;26.77;22.30;;;;;;;4.14;100.00;94172.66;7397447;19;20401;-89
2023/10/19 08:22:53;;;;;;;27.77;22.30;;;;;;;4.58;100.00;94211.03;7397947;19;20380;-89
2023/10/19 08:25:20;;;;;;;27.17;24.27;;;;;;;4.57;100.00;94204.28;7398807;19;20907;-89
2023/10/19 08:27:51;;;;;;;27.23;22.50;;;;;;;4.07;100.00;94129.91;7398854;19;20448;-88
2023/10/19 08:30:21;;;;;;;25.87;23.13;;;;;;;5.12;100.00;94291.50;7400029;19;20404;-89
2023/10/19 08:32:52;;;;;;;31.73;24.63;;;;;;;3.97;100.00;94133.00;7396132;19;20411;-89
2023/10/19 08:35:24;;;;;;;26.60;23.80;;;;;;;4.70;100.00;94248.31;7397210;19;20380;-89
2023/10/19 08:37:53;;;;;;;28.70;24.80;;;;;;;4.13;100.00;94171.13;7396072;19;20369;-89
2023/10/19 08:40:21;;;;;;;27.53;23.03;;;;;;;4.72;100.00;94240.88;7397340;19;20456;-89
2023/10/19 08:42:48;;;;;;;28.80;24.13;;;;;;;3.68;100.00;94061.78;7396722;19;20735;-89
2023/10/19 08:45:18;;;;;;;27.93;24.53;;;;;;;3.97;100.00;94117.34;7397150;19;20392;-89
2023/10/19 08:47:56;;;;;;;29.63;24.30;;;;;;;4.23;100.00;94135.88;7397901;19;20395;-89
2023/10/19 08:50:26;;;;;;;29.83;24.17;;;;;;;5.14;100.00;94247.38;7397317;19;21040;-89
2023/10/19 08:52:54;;;;;;;32.00;26.50;;;;;;;5.13;100.00;94261.59;7396024;19;20392;-89
2023/10/19 08:55:22;;;;;;;31.40;25.03;;;;;;;5.04;100.00;94246.81;7396858;19;20380;-88
2023/10/19 08:58:06;;;;;;;30.50;25.40;;;;;;;3.24;100.00;93972.34;7397263;19;20421;-89
2023/10/19 09:00:48;;;;;;;31.40;26.33;;;;;;;5.17;100.00;94244.06;7396630;19;20732;-89
2023/10/19 09:03:16;;;;;;;29.70;24.50;;;;;;;5.19;100.00;94234.75;7396942;19;20393;-89
2023/10/19 09:05:48;;;;;;;30.00;24.10;;;;;;;5.45;100.00;94268.22;7396125;19;20399;-89
2023/10/19 09:08:17;;;;;;;29.13;24.97;;;;;;;5.46;100.00;94251.41;7395815;19;20427;-89
2023/10/19 09:10:46;;;;;;;27.63;23.67;;;;;;;4.96;100.00;94171.84;7396736;19;20381;-88
2023/10/19 09:13:15;;;;;;;29.37;23.53;;;;;;;4.91;100.00;94156.38;7394321;19;20401;-89
2023/10/19 09:15:42;;;;;;;28.63;24.67;;;;;;;4.94;100.00;94162.78;7396348;19;20404;-89
2023/10/19 09:18:30;;;;;;;27.70;24.63;;;;;;;5.64;100.00;94260.38;7395036;19;20423;-89
2023/10/19 09:21:07;;;;;;;29.00;24.07;;;;;;;5.05;100.00;94137.59;7395701;19;20471;-88
2023/10/19 09:23:36;;;;;;;27.87;23.93;;;;;;;5.29;100.00;94166.13;7395778;19;20459;-89
2023/10/19 09:26:05;;;;;;;28.37;24.30;;;;;;;5.75;100.00;94231.00;7395470;19;20931;-90
2023/10/19 09:28:37;;;;;;;26.30;22.93;;;;;;;5.63;100.00;94176.88;7395548;19;20417;-89
2023/10/19 09:31:09;;;;;;;25.03;22.10;;;;;;;5.55;100.00;94139.28;7395678;19;20391;-89
2023/10/19 09:33:40;;;;;;;24.70;21.90;;;;;;;5.71;100.00;94159.38;7393055;19;20373;-89
2023/10/19 09:36:13;;;;;;;26.03;20.57;;;;;;;5.12;100.00;94087.22;7395138;19;20376;-89
2023/10/19 09:38:48;;;;;;;25.67;23.17;;;;;;;6.28;100.00;94275.78;7393938;19;20428;-89
2023/10/19 09:41:18;;;;;;;25.73;23.03;;;;;;;4.59;100.00;94011.81;7395782;19;20702;-89
2023/10/19 09:43:50;;;;;;;27.50;23.57;;;;;;;6.03;100.00;94249.16;7395762;19;20381;-89
2023/10/19 09:46:26;;;;;;;25.70;22.93;;;;;;;5.62;100.00;94201.56;7395448;19;20365;-89
2023/10/19 09:48:53;;;;;;;26.37;21.40;;;;;;;5.96;100.00;94218.28;7394195;19;20439;-88
2023/10/19 09:51:22;;;;;;;25.00;22.40;;;;;;;5.14;100.00;94090.25;7394510;19;20431;-88
2023/10/19 09:54:18;;;;;;;26.17;23.20;;;;;;;5.42;100.00;94127.44;7394674;19;20376;-90
2023/10/19 09:56:52;;;;;;;27.57;21.27;;;;;;;6.17;100.00;94229.16;7395646;19;20444;-89
2023/10/19 09:59:37;;;;;;;22.80;20.50;;;;;;;6.16;100.00;94242.63;7393990;19;20415;-89
2023/10/19 10:02:05;;;;;;;26.50;22.40;;;;;;;6.17;100.00;94241.53;7394566;19;20393;-89
2023/10/19 10:04:33;;;;;;;22.60;20.20;;;;;;;6.07;100.00;94228.97;7394687;19;20401;-89
2023/10/19 10:07:01;;;;;;;22.93;20.47;;;;;;;6.15;100.00;94231.38;7394749;19;20740;-89
2023/10/19 10:09:29;;;;;;;26.63;22.30;;;;;;;6.59;100.00;94293.19;7393016;19;20767;-89
2023/10/19 10:12:14;;;;;;;25.30;22.60;;;;;;;5.71;100.00;94151.53;7394192;19;20406;-89
2023/10/19 10:15:05;;;;;;;28.03;24.83;;;;;;;6.37;100.00;94229.09;7394751;19;20854;-89
2023/10/19 10:17:34;;;;;;;24.83;22.33;;;;;;;5.78;100.00;94134.06;7394414;19;20910;-88
2023/10/19 10:20:14;;;;;;;26.47;22.80;;;;;;;6.41;100.00;94220.19;7391891;19;20424;-89
2023/10/19 10:22:41;;;;;;;25.10;22.57;;;;;;;5.37;100.00;94056.25;7394587;19;20369;-88
2023/10/19 10:25:29;;;;;;;27.60;23.80;;;;;;;6.43;100.00;94241.59;7394416;19;21018;-89
2023/10/19 10:27:57;;;;;;;24.50;21.90;;;;;;;6.44;100.00;94197.72;7393669;19;20392;-89
2023/10/19 10:30:24;;;;;;;28.83;23.87;;;;;;;5.95;100.00;94116.38;7393811;19;20456;-89
2023/10/19 10:32:54;;;;;;;27.10;24.37;;;;;;;6.74;100.00;94232.69;7393204;19;20373;-89
2023/10/19 10:35:36;;;;;;;25.47;22.77;;;;;;;7.10;100.00;94283.88;7393491;19;20381;-89
2023/10/19 10:38:09;;;;;;;24.97;22.30;;;;;;;6.32;100.00;94151.44;7393251;19;20393;-89
2023/10/19 10:40:49;;;;;;;25.83;21.87;;;;;;;7.13;100.00;94289.53;7394272;19;20372;-89
2023/10/19 10:43:18;;;;;;;31.47;25.37;;;;;;;6.93;100.00;94207.41;7393541;19;20401;-89
2023/10/19 10:45:46;;;;;;;27.90;24.67;;;;;;;6.46;100.00;94151.66;7393720;19;20381;-89
2023/10/19 10:48:19;;;;;;;29.97;23.07;;;;;;;7.13;100.00;94213.34;7394050;19;20397;-90
2023/10/19 10:50:46;;;;;;;28.87;24.30;;;;;;;6.71;100.00;94152.00;7392887;19;20385;-89
2023/10/19 10:53:17;;;;;;;26.20;22.57;;;;;;;6.73;100.00;94118.25;7391999;19;20389;-89
2023/10/19 10:55:45;;;;;;;25.63;22.90;;;;;;;6.87;100.00;94132.69;7393486;19;20439;-89
2023/10/19 10:58:16;;;;;;;26.93;24.20;;;;;;;7.70;100.00;94228.66;7392043;19;20770;-89
2023/10/19 11:00:46;;;;;;;24.40;21.80;;;;;;;7.64;100.00;94164.38;7394126;19;20402;-89
2023/10/19 11:03:15;;;;;;;35.07;26.13;;;;;;;7.36;100.00;94135.91;7400783;19;20376;-89
2023/10/19 11:05:45;;;;;;;24.03;21.57;;;;;;;6.93;100.00;94063.72;7400407;19;20388;-88
2023/10/19 11:08:14;;;;;;;24.73;21.93;;;;;;;8.00;100.00;94189.13;7399570;19;20723;-89
2023/10/19 11:10:46;;;;;;;25.20;21.10;;;;;;;7.37;100.00;94086.72;7399553;19;20465;-89
2023/10/19 11:13:15;;;;;;;27.00;24.07;;;;;;;6.67;100.00;94021.78;7398125;19;20929;-89
2023/10/19 11:15:51;;;;;;;25.13;22.03;;;;;;;7.80;100.00;94171.28;7400472;19;20909;-89
2023/10/19 11:18:37;;;;;;;26.33;23.27;;;;;;;7.29;100.00;94066.75;7399059;19;20388;-89
2023/10/19 11:21:09;;;;;;;24.43;21.60;;;;;;;7.19;100.00;94059.50;7399365;19;20905;-89
2023/10/19 11:23:37;;;;;;;27.40;22.07;;;;;;;8.49;100.00;94218.91;7400147;19;20914;-89
2023/10/19 11:26:05;;;;;;;25.27;22.63;;;;;;;7.63;100.00;94104.25;7399226;19;20400;-90
2023/10/19 11:28:33;;;;;;;27.57;24.70;;;;;;;7.09;100.00;94016.25;7398259;19;20427;-89
2023/10/19 11:31:11;;;;;;;28.17;25.10;;;;;;;8.26;100.00;94184.84;7399062;19;20405;-89
2023/10/19 11:33:38;;;;;;;33.70;25.70;;;;;;;7.99;100.00;94139.50;7397525;19;20369;-88
2023/10/19 11:36:06;;;;;;;24.40;21.80;;;;;;;7.28;100.00;94023.94;7399254;19;20388;-89
2023/10/19 11:38:33;;;;;;;27.27;22.93;;;;;;;7.34;100.00;94043.50;7398090;19;20424;-89
2023/10/19 11:41:00;;;;;;;23.17;20.70;;;;;;;7.30;100.00;94026.19;7398988;19;20384;-89
2023/10/19 11:43:27;;;;;;;28.10;23.03;;;;;;;7.91;100.00;94120.28;7399432;19;20902;-88
2023/10/19 11:52:13;;;;;;;24.60;22.00;;;;;;;7.24;100.00;93990.88;7421538;19;20353;-90
2023/10/19 11:54:41;;;;;;;25.07;22.33;;;;;;;6.68;100.00;93892.06;7425939;19;20393;-90
2023/10/19 11:57:30;;;;;;;24.67;22.07;;;;;;;6.55;100.00;93872.44;7404967;19;20368;-88
2023/10/19 12:00:33;;;;;;;25.00;21.53;;;;;;;8.75;100.00;94197.66;7400465;19;20944;-89
2023/10/19 12:07:00;;;;;;;23.47;21.00;;;;;;;9.21;100.00;94191.16;7401094;19;20380;-89
2023/10/19 12:10:32;;;;;;;25.00;22.20;;;;;;;9.44;100.00;94196.91;7395163;19;20384;-89
2023/10/19 12:21:11;;;;;;;22.80;20.37;;;;;;;10.33;100.00;94183.94;7398419;19;20382;-89
2023/10/19 12:23:56;;;;;;;27.87;21.77;;;;;;;9.75;100.00;94117.13;7414689;19;20451;-90